Time;durP1;ratioP1;P1;durP2;ratioP2;P2;SDS_P1;SDS_P2;PMS_P1;PMS_P2;Temp;Humidity;BMP_temperature;BMP_pressure;BME280_temperature;BME280_humidity;BME280_pressure;Samples;Min_cycle;Max_cycle;Signal;HPM_P1;HPM_P2
2022/05/09 00:01:25;;;;;;;14.73;4.43;;;5.70;99.90;;;;;;5054230;28;20049;-35
2022/05/09 00:03:51;;;;;;;15.00;5.00;;;5.80;99.90;;;;;;5045346;28;20107;-36
2022/05/09 00:06:17;;;;;;;19.47;5.47;;;5.70;99.90;;;;;;5049527;28;20127;-36
2022/05/09 00:08:43;;;;;;;14.97;5.10;;;5.70;99.90;;;;;;5057048;28;20053;-36
2022/05/09 00:11:10;;;;;;;14.83;4.90;;;5.70;99.90;;;;;;5049562;28;20041;-35
2022/05/09 00:13:37;;;;;;;11.37;4.57;;;5.70;99.90;;;;;;5049157;28;20045;-36
2022/05/09 00:16:03;;;;;;;20.20;5.30;;;5.70;99.90;;;;;;5048487;28;20052;-35
2022/05/09 00:18:29;;;;;;;17.03;5.10;;;5.70;99.90;;;;;;5032945;28;20045;-36
2022/05/09 00:20:55;;;;;;;13.67;5.03;;;5.70;99.90;;;;;;5067679;28;20063;-35
2022/05/09 00:23:20;;;;;;;20.23;5.03;;;5.70;99.90;;;;;;5068408;28;20084;-36
2022/05/09 00:25:46;;;;;;;17.37;5.40;;;5.70;99.90;;;;;;5069522;28;20207;-36
2022/05/09 00:28:12;;;;;;;15.53;4.77;;;5.60;99.90;;;;;;5052637;28;20040;-36
2022/05/09 00:30:37;;;;;;;16.73;5.23;;;5.60;99.90;;;;;;5069631;28;20048;-36
2022/05/09 00:33:04;;;;;;;16.70;5.17;;;5.60;99.90;;;;;;5068105;28;20123;-36
2022/05/09 00:35:30;;;;;;;16.47;5.23;;;5.60;99.90;;;;;;5069434;28;20097;-37
2022/05/09 00:37:55;;;;;;;17.10;4.50;;;5.60;99.90;;;;;;5053499;28;20119;-35
2022/05/09 00:40:21;;;;;;;18.73;4.67;;;5.60;99.90;;;;;;5069120;28;20103;-35
2022/05/09 00:42:50;;;;;;;19.97;5.67;;;5.60;99.90;;;;;;5068024;28;20049;-35
2022/05/09 00:45:17;;;;;;;17.40;5.70;;;5.60;99.90;;;;;;5068817;28;20568;-36
2022/05/09 00:47:44;;;;;;;19.57;5.27;;;5.60;99.90;;;;;;5052374;28;20110;-35
2022/05/09 00:50:13;;;;;;;14.47;4.90;;;5.60;99.90;;;;;;5068921;28;20311;-36
2022/05/09 00:52:46;;;;;;;18.43;5.63;;;5.60;99.90;;;;;;5059036;28;20047;-36
2022/05/09 00:55:18;;;;;;;18.03;5.63;;;5.60;99.90;;;;;;5051050;28;20069;-36
2022/05/09 00:57:51;;;;;;;14.73;5.95;;;5.50;99.90;;;;;;5044211;28;20183;-35
2022/05/09 01:00:19;;;;;;;16.73;5.33;;;5.50;99.90;;;;;;5071854;28;20041;-36
2022/05/09 01:02:49;;;;;;;17.03;5.13;;;5.40;99.90;;;;;;5049279;28;20048;-36
2022/05/09 01:05:16;;;;;;;16.57;5.33;;;5.50;99.90;;;;;;5053502;28;20511;-36
2022/05/09 01:07:43;;;;;;;17.33;5.00;;;5.40;99.90;;;;;;5051871;28;20040;-35
2022/05/09 01:10:14;;;;;;;14.13;5.10;;;5.50;99.90;;;;;;5049872;28;20045;-35
2022/05/09 01:12:42;;;;;;;18.57;5.07;;;5.40;99.90;;;;;;5036232;28;20705;-35
2022/05/09 01:15:12;;;;;;;15.73;5.50;;;5.40;99.90;;;;;;5055875;28;20044;-35
2022/05/09 01:17:39;;;;;;;19.87;5.47;;;5.40;99.90;;;;;;5051957;28;20133;-36
2022/05/09 01:20:07;;;;;;;16.37;5.43;;;5.30;99.90;;;;;;5050531;28;20047;-35
2022/05/09 01:22:35;;;;;;;12.20;4.77;;;5.30;99.90;;;;;;5049633;28;20116;-35
2022/05/09 01:25:04;;;;;;;18.23;5.00;;;5.30;99.90;;;;;;5060175;28;20049;-36
2022/05/09 01:27:31;;;;;;;19.43;4.93;;;5.30;99.90;;;;;;5046814;28;20082;-36
2022/05/09 01:29:59;;;;;;;20.80;5.07;;;5.20;99.90;;;;;;5057483;28;20044;-35
2022/05/09 01:32:37;;;;;;;14.67;5.27;;;5.20;99.90;;;;;;5050093;28;20052;-35
2022/05/09 01:35:18;;;;;;;13.50;4.57;;;5.20;99.90;;;;;;5068787;28;20044;-35
2022/05/09 01:37:47;;;;;;;17.53;5.00;;;5.20;99.90;;;;;;5052446;28;20048;-35
2022/05/09 01:40:13;;;;;;;17.17;5.17;;;5.20;99.90;;;;;;5068682;28;20033;-35
2022/05/09 01:42:43;;;;;;;12.53;4.33;;;5.10;99.90;;;;;;5067611;28;20123;-35
2022/05/09 01:45:10;;;;;;;14.23;4.47;;;5.10;99.90;;;;;;5068696;28;20106;-35
2022/05/09 01:50:20;;;;;;;13.07;4.17;;;5.10;99.90;;;;;;5064359;28;20055;-35
2022/05/09 01:52:46;;;;;;;11.60;3.80;;;5.10;99.90;;;;;;5066910;28;20044;-36
2022/05/09 01:55:12;;;;;;;11.23;3.77;;;5.10;99.90;;;;;;5049924;28;20533;-35
2022/05/09 01:57:38;;;;;;;12.80;4.30;;;5.10;99.90;;;;;;5035204;28;20124;-36
2022/05/09 02:00:09;;;;;;;9.67;3.37;;;5.10;99.90;;;;;;5055948;28;20048;-36
2022/05/09 02:02:35;;;;;;;7.53;2.88;;;5.10;99.90;;;;;;5067854;28;20040;-35
2022/05/09 02:05:01;;;;;;;9.17;2.90;;;5.00;99.90;;;;;;5041130;28;20048;-35
2022/05/09 02:07:27;;;;;;;7.80;2.50;;;5.00;99.90;;;;;;5035789;28;20143;-36
2022/05/09 02:09:53;;;;;;;6.87;3.00;;;5.00;99.90;;;;;;5053346;28;20124;-35
2022/05/09 02:12:19;;;;;;;7.13;2.90;;;5.00;99.90;;;;;;5061310;28;20052;-35
2022/05/09 02:14:47;;;;;;;5.57;2.27;;;5.00;99.90;;;;;;5051455;28;20052;-36
2022/05/09 02:17:14;;;;;;;7.67;2.50;;;5.00;99.90;;;;;;5046557;28;20156;-35
2022/05/09 02:19:41;;;;;;;5.27;2.23;;;5.00;99.90;;;;;;5063569;28;20045;-35
2022/05/09 02:22:08;;;;;;;4.60;2.07;;;5.00;99.90;;;;;;5051043;28;20547;-36
2022/05/09 02:24:34;;;;;;;5.80;2.00;;;4.90;99.90;;;;;;5051652;28;20110;-35
2022/05/09 02:27:00;;;;;;;6.23;1.93;;;5.00;99.90;;;;;;5050723;28;20036;-35
2022/05/09 02:29:26;;;;;;;4.73;1.63;;;5.00;99.90;;;;;;5070550;28;20487;-35
2022/05/09 02:31:52;;;;;;;4.23;1.80;;;4.90;99.90;;;;;;5071816;28;20044;-35
2022/05/09 02:34:19;;;;;;;6.57;1.80;;;4.90;99.90;;;;;;5052298;28;20063;-36
2022/05/09 02:36:45;;;;;;;4.10;1.70;;;4.90;99.90;;;;;;5056229;28;20483;-36
2022/05/09 02:39:10;;;;;;;4.43;1.60;;;4.80;99.90;;;;;;5064314;28;20052;-35
2022/05/09 02:41:36;;;;;;;5.00;1.60;;;4.80;99.90;;;;;;5051808;28;20040;-36
2022/05/09 02:44:03;;;;;;;7.70;1.77;;;4.80;99.90;;;;;;5056940;28;20048;-35
2022/05/09 02:46:29;;;;;;;3.73;1.97;;;4.80;99.90;;;;;;5045995;28;20045;-35
2022/05/09 02:48:59;;;;;;;6.40;1.97;;;4.70;99.90;;;;;;5048811;28;20051;-36
2022/05/09 02:51:26;;;;;;;7.10;2.10;;;4.70;99.90;;;;;;5071496;28;20044;-35
2022/05/09 02:53:52;;;;;;;9.43;2.37;;;4.70;99.90;;;;;;5069909;28;20100;-35
2022/05/09 02:56:17;;;;;;;11.60;3.00;;;4.70;99.90;;;;;;5032226;28;20134;-35
2022/05/09 02:58:43;;;;;;;8.60;2.97;;;4.70;99.90;;;;;;5063617;28;20049;-35
2022/05/09 03:01:09;;;;;;;8.97;3.07;;;4.70;99.90;;;;;;5073426;28;20056;-35
2022/05/09 03:06:19;;;;;;;13.37;3.63;;;4.70;99.90;;;;;;5050548;28;20048;-36
2022/05/09 03:08:45;;;;;;;12.77;3.57;;;4.70;99.90;;;;;;5058294;28;20060;-36
2022/05/09 03:11:10;;;;;;;12.63;3.53;;;4.70;99.90;;;;;;5064560;28;20044;-39
2022/05/09 03:13:38;;;;;;;13.63;4.17;;;4.70;99.90;;;;;;5070074;28;20049;-43
2022/05/09 03:16:04;;;;;;;10.87;3.30;;;4.70;99.90;;;;;;5068512;28;20103;-38
2022/05/09 03:18:31;;;;;;;7.83;2.80;;;4.70;99.90;;;;;;5034582;28;20151;-35
2022/05/09 03:20:57;;;;;;;8.33;3.03;;;4.70;99.90;;;;;;5065148;28;20137;-36
2022/05/09 03:23:22;;;;;;;10.60;2.50;;;4.70;99.90;;;;;;5043938;28;20068;-37
2022/05/09 03:25:48;;;;;;;6.43;3.00;;;4.70;99.90;;;;;;5054662;28;20036;-37
2022/05/09 03:28:21;;;;;;;7.67;2.90;;;4.70;99.90;;;;;;5054304;28;20523;-36
2022/05/09 03:30:48;;;;;;;8.70;2.90;;;4.70;99.90;;;;;;5057155;28;20102;-35
2022/05/09 03:33:14;;;;;;;9.13;2.90;;;4.70;99.90;;;;;;5060168;28;20052;-35
2022/05/09 03:35:41;;;;;;;7.30;2.90;;;4.70;99.90;;;;;;5066233;28;20403;-41
2022/05/09 03:38:07;;;;;;;12.70;3.27;;;4.70;99.90;;;;;;5054878;28;20242;-36
2022/05/09 03:40:34;;;;;;;6.30;2.60;;;4.60;99.90;;;;;;5035603;28;20084;-39
2022/05/09 03:43:00;;;;;;;10.53;3.40;;;4.60;99.90;;;;;;5059746;28;20048;-35
2022/05/09 03:45:27;;;;;;;9.47;3.20;;;4.50;99.90;;;;;;5069910;28;20117;-35
2022/05/09 03:47:54;;;;;;;11.00;3.10;;;4.60;99.90;;;;;;5054020;28;20044;-36
2022/05/09 03:50:20;;;;;;;8.87;3.03;;;4.60;99.90;;;;;;5069608;28;20044;-40
2022/05/09 03:52:46;;;;;;;7.80;2.20;;;4.60;99.90;;;;;;5069104;28;20040;-34
2022/05/09 03:55:13;;;;;;;7.57;2.60;;;4.60;99.90;;;;;;5067681;28;20479;-35
2022/05/09 03:57:54;;;;;;;6.97;2.30;;;4.50;99.90;;;;;;5038436;28;20454;-36
2022/05/09 04:00:23;;;;;;;4.85;2.10;;;4.50;99.90;;;;;;5060108;28;20145;-36
2022/05/09 04:02:48;;;;;;;5.47;2.23;;;4.50;99.90;;;;;;5069246;28;20044;-35
2022/05/09 04:05:16;;;;;;;6.57;2.10;;;4.50;99.90;;;;;;5054081;28;20392;-35
2022/05/09 04:07:46;;;;;;;5.10;2.00;;;4.50;99.90;;;;;;5053377;28;20500;-36
2022/05/09 04:10:14;;;;;;;3.85;1.63;;;4.40;99.90;;;;;;5069903;28;20040;-40
2022/05/09 04:12:40;;;;;;;5.13;1.50;;;4.40;99.90;;;;;;5068819;28;20155;-41
2022/05/09 04:17:53;;;;;;;2.70;1.23;;;4.40;99.90;;;;;;5046769;28;20075;-39
2022/05/09 04:20:19;;;;;;;3.53;1.37;;;4.40;99.90;;;;;;5049463;28;20041;-34
2022/05/09 04:22:45;;;;;;;2.87;1.47;;;4.40;99.90;;;;;;5063151;28;20047;-38
2022/05/09 04:25:12;;;;;;;3.80;1.27;;;4.30;99.90;;;;;;5069801;28;20391;-35
2022/05/09 04:27:38;;;;;;;1.60;1.13;;;4.30;99.90;;;;;;5052198;28;20040;-35
2022/05/09 04:30:07;;;;;;;4.33;1.40;;;4.30;99.90;;;;;;5034947;28;20044;-35
2022/05/09 04:32:34;;;;;;;4.03;1.00;;;4.30;99.90;;;;;;5056340;28;20048;-36
2022/05/09 04:34:59;;;;;;;2.57;1.20;;;4.30;99.90;;;;;;5057845;28;20054;-38
2022/05/09 04:37:25;;;;;;;2.50;1.20;;;4.30;99.90;;;;;;5038948;28;20052;-36
2022/05/09 04:39:51;;;;;;;2.73;1.30;;;4.40;99.90;;;;;;5062903;28;20044;-36
2022/05/09 04:42:16;;;;;;;3.43;1.67;;;4.40;99.90;;;;;;5062265;28;20540;-42
2022/05/09 04:44:43;;;;;;;3.63;1.67;;;4.40;99.90;;;;;;5049527;28;20480;-35
2022/05/09 04:47:09;;;;;;;4.97;1.80;;;4.40;99.90;;;;;;5032931;28;20045;-36
2022/05/09 04:49:34;;;;;;;7.57;1.90;;;4.40;99.90;;;;;;5058145;28;20037;-36
2022/05/09 04:52:00;;;;;;;3.70;1.87;;;4.40;99.90;;;;;;5068787;28;20044;-35
2022/05/09 04:54:26;;;;;;;4.93;2.17;;;4.40;99.90;;;;;;5068105;28;20053;-35
2022/05/09 04:56:51;;;;;;;4.37;1.90;;;4.50;99.90;;;;;;5040613;28;20072;-36
2022/05/09 04:59:17;;;;;;;5.13;2.20;;;4.50;99.90;;;;;;5050254;28;20065;-38
2022/05/09 05:01:44;;;;;;;5.10;2.37;;;4.50;99.90;;;;;;5071233;28;20533;-35
2022/05/09 05:04:10;;;;;;;4.53;2.30;;;4.60;99.90;;;;;;5066845;28;20036;-36
2022/05/09 05:06:36;;;;;;;6.60;2.13;;;4.60;99.90;;;;;;5036356;28;20040;-40
2022/05/09 05:09:02;;;;;;;6.27;2.63;;;4.60;99.90;;;;;;5056678;28;20059;-37
2022/05/09 05:11:28;;;;;;;10.20;2.93;;;4.70;99.90;;;;;;5048020;28;20045;-35
2022/05/09 05:13:53;;;;;;;7.20;3.37;;;4.80;99.90;;;;;;5039951;28;20049;-36
2022/05/09 05:16:59;;;;;;;15.90;4.13;;;4.90;99.90;;;;;;5054797;28;20082;-40
2022/05/09 05:19:05;;;;;;;11.30;4.70;;;4.90;99.90;;;;;;5065957;28;20047;-36
2022/05/09 05:21:31;;;;;;;13.40;5.33;;;5.10;99.90;;;;;;5054609;28;20052;-44
2022/05/09 05:23:56;;;;;;;17.63;5.20;;;5.20;99.90;;;;;;5067734;28;20154;-34
2022/05/09 05:26:22;;;;;;;16.67;5.40;;;5.30;99.90;;;;;;5055510;28;20495;-36
2022/05/09 05:28:48;;;;;;;9.53;5.03;;;5.50;99.90;;;;;;5064691;28;20044;-42
2022/05/09 05:31:15;;;;;;;17.73;6.40;;;5.60;99.90;;;;;;5043847;28;20404;-40
2022/05/09 05:33:41;;;;;;;16.80;5.93;;;5.80;99.90;;;;;;5052918;28;20052;-36
2022/05/09 05:36:07;;;;;;;15.77;6.70;;;5.90;99.90;;;;;;5047835;28;20048;-35
2022/05/09 05:38:33;;;;;;;19.60;6.43;;;6.20;99.90;;;;;;5034821;28;20056;-36
2022/05/09 05:40:58;;;;;;;13.87;5.70;;;6.20;99.90;;;;;;5048627;28;20037;-42
2022/05/09 05:43:24;;;;;;;19.67;7.27;;;6.40;99.90;;;;;;5045742;28;20423;-41
2022/05/09 05:45:55;;;;;;;21.13;7.27;;;6.60;99.90;;;;;;5047443;28;20044;-38
2022/05/09 05:48:21;;;;;;;18.85;7.40;;;6.70;99.90;;;;;;5033590;28;20136;-41
2022/05/09 05:50:47;;;;;;;17.40;7.23;;;6.90;99.90;;;;;;5049874;28;20178;-38
2022/05/09 05:53:13;;;;;;;22.40;7.23;;;7.00;99.90;;;;;;5036570;28;20055;-36
2022/05/09 05:55:38;;;;;;;20.77;7.50;;;7.20;99.90;;;;;;5019313;28;20041;-36
2022/05/09 05:58:04;;;;;;;16.10;7.30;;;7.40;99.90;;;;;;5044190;28;20049;-39
2022/05/09 06:00:30;;;;;;;15.07;7.00;;;7.50;99.90;;;;;;5067661;28;20092;-36
2022/05/09 06:02:55;;;;;;;16.07;7.27;;;7.70;99.90;;;;;;5065618;28;20044;-36
2022/05/09 06:05:21;;;;;;;18.70;7.37;;;7.80;99.90;;;;;;5052368;28;20048;-37
2022/05/09 06:07:51;;;;;;;17.63;7.17;;;7.90;99.90;;;;;;5033354;28;20052;-38
2022/05/09 06:10:18;;;;;;;18.13;6.77;;;8.00;99.90;;;;;;5061412;28;20041;-36
2022/05/09 06:12:44;;;;;;;21.43;7.27;;;8.20;99.90;;;;;;5066800;28;20059;-44
2022/05/09 06:15:28;;;;;;;24.10;8.60;;;8.30;99.90;;;;;;5067907;28;20495;-35
2022/05/09 06:17:58;;;;;;;21.67;7.47;;;8.50;99.90;;;;;;5050725;28;20041;-43
2022/05/09 06:20:24;;;;;;;21.20;8.67;;;8.70;99.90;;;;;;5068249;28;20249;-38
2022/05/09 06:22:51;;;;;;;21.47;8.57;;;8.80;99.90;;;;;;5064666;28;20048;-38
2022/05/09 06:25:19;;;;;;;31.90;8.80;;;9.00;99.90;;;;;;5058669;28;20063;-38
2022/05/09 06:27:46;;;;;;;31.30;8.57;;;9.20;99.90;;;;;;5040108;28;20037;-39
2022/05/09 06:30:14;;;;;;;26.50;9.37;;;9.30;99.90;;;;;;5044994;28;20148;-39
2022/05/09 06:32:39;;;;;;;28.20;8.73;;;9.50;99.90;;;;;;5062171;28;20403;-39
2022/05/09 06:35:08;;;;;;;23.90;8.43;;;9.60;99.90;;;;;;5064690;28;20040;-39
2022/05/09 06:37:35;;;;;;;28.87;8.63;;;9.80;99.90;;;;;;5049434;28;20053;-38
2022/05/09 06:40:01;;;;;;;25.60;8.63;;;9.90;99.90;;;;;;5064831;28;20049;-36
2022/05/09 06:42:27;;;;;;;25.47;8.30;;;10.10;99.90;;;;;;5044935;28;20061;-38
2022/05/09 06:44:54;;;;;;;29.87;8.37;;;10.20;99.90;;;;;;5044618;28;20053;-41
2022/05/09 06:47:19;;;;;;;24.30;8.10;;;10.30;99.90;;;;;;5043977;28;20056;-37
2022/05/09 06:49:45;;;;;;;25.03;8.17;;;10.40;99.90;;;;;;5047728;28;20044;-37
2022/05/09 06:52:11;;;;;;;23.77;7.53;;;10.50;99.90;;;;;;5051929;28;20036;-40
2022/05/09 06:54:37;;;;;;;22.70;8.43;;;10.70;99.90;;;;;;5052025;28;20033;-37
2022/05/09 06:57:04;;;;;;;23.40;7.83;;;10.80;99.90;;;;;;5052499;28;20372;-43
2022/05/09 06:59:33;;;;;;;23.27;7.70;;;10.90;99.90;;;;;;5059069;28;20415;-37
2022/05/09 07:02:00;;;;;;;16.60;6.80;;;11.10;99.90;;;;;;5067492;28;20047;-41
2022/05/09 07:04:25;;;;;;;26.63;7.70;;;11.10;99.90;;;;;;5040824;28;20495;-39
2022/05/09 07:06:51;;;;;;;23.17;8.80;;;11.20;99.90;;;;;;5032525;28;20052;-40
2022/05/09 07:09:17;;;;;;;19.52;6.82;;;11.30;99.90;;;;;;5044877;28;20385;-38
2022/05/09 07:11:43;;;;;;;23.95;7.43;;;11.40;99.90;;;;;;5051575;28;20060;-40
2022/05/09 07:14:10;;;;;;;22.88;7.85;;;11.40;99.90;;;;;;5042144;28;20045;-39
2022/05/09 07:16:36;;;;;;;19.70;7.43;;;11.50;99.90;;;;;;5033732;28;20345;-42
2022/05/09 07:19:06;;;;;;;26.60;8.45;;;11.60;99.90;;;;;;5045027;28;20059;-39
2022/05/09 07:21:33;;;;;;;21.60;7.40;;;11.60;99.90;;;;;;5037007;28;20056;-40
2022/05/09 07:23:59;;;;;;;18.67;7.53;;;11.70;99.90;;;;;;5055384;28;20036;-37
2022/05/09 07:26:25;;;;;;;17.70;7.32;;;11.70;99.90;;;;;;5017250;28;20660;-37
2022/05/09 07:28:51;;;;;;;19.38;7.03;;;11.80;99.90;;;;;;5038404;28;20493;-37
2022/05/09 07:31:17;;;;;;;19.02;6.78;;;11.90;99.90;;;;;;5044228;28;20408;-39
2022/05/09 07:33:43;;;;;;;18.95;7.18;;;11.90;99.90;;;;;;5024818;28;20041;-38
2022/05/09 07:36:09;;;;;;;19.40;7.05;;;12.00;99.90;;;;;;5046749;28;20064;-39
2022/05/09 07:38:34;;;;;;;24.90;6.90;;;12.00;99.90;;;;;;5034434;28;20052;-42
2022/05/09 07:41:00;;;;;;;18.85;6.22;;;12.10;99.90;;;;;;5042569;28;20048;-40
2022/05/09 07:43:30;;;;;;;17.55;5.63;;;12.10;99.90;;;;;;5052586;28;20114;-41
2022/05/09 07:45:56;;;;;;;19.00;6.05;;;12.20;99.90;;;;;;5040766;28;20080;-44
2022/05/09 07:48:25;;;;;;;15.25;5.75;;;12.30;99.90;;;;;;5028215;28;20583;-44
2022/05/09 07:50:50;;;;;;;22.02;5.30;;;12.40;99.90;;;;;;5030589;28;20131;-42
2022/05/09 07:53:30;;;;;;;16.35;5.65;;;12.40;99.90;;;;;;5052493;28;20120;-39
2022/05/09 07:55:56;;;;;;;21.45;5.82;;;12.50;99.90;;;;;;5026249;28;20465;-38
2022/05/09 07:58:23;;;;;;;17.85;5.57;;;12.50;99.90;;;;;;5028038;28;20789;-38
2022/05/09 08:00:49;;;;;;;14.77;5.47;;;12.50;99.90;;;;;;5045983;28;20062;-42
2022/05/09 08:03:22;;;;;;;20.30;5.65;;;12.60;99.90;;;;;;5045356;28;20048;-44
2022/05/09 08:05:53;;;;;;;19.98;6.03;;;12.60;99.90;;;;;;5051220;28;20177;-38
2022/05/09 08:08:19;;;;;;;13.52;5.32;;;12.70;99.90;;;;;;5028229;28;20143;-44
2022/05/09 08:10:46;;;;;;;14.32;5.50;;;12.70;99.90;;;;;;5042543;28;20563;-38
2022/05/09 08:13:14;;;;;;;14.43;5.20;;;12.80;99.90;;;;;;5043596;28;20833;-46
2022/05/09 08:15:41;;;;;;;19.67;5.65;;;12.80;99.90;;;;;;5023876;28;20056;-38
2022/05/09 08:18:06;;;;;;;16.65;5.78;;;12.90;99.90;;;;;;5032139;28;20059;-37
2022/05/09 08:20:34;;;;;;;14.50;5.25;;;12.90;99.90;;;;;;5043789;28;20048;-42
2022/05/09 08:23:10;;;;;;;18.35;5.07;;;13.00;99.90;;;;;;5042846;28;20515;-44
2022/05/09 08:25:38;;;;;;;14.30;5.00;;;13.00;99.90;;;;;;5046180;28;20064;-42
2022/05/09 08:28:07;;;;;;;11.80;4.40;;;13.10;99.90;;;;;;5028308;28;20056;-39
2022/05/09 08:30:34;;;;;;;17.25;4.75;;;13.10;99.90;;;;;;5042092;28;20059;-39
2022/05/09 08:33:02;;;;;;;13.93;4.53;;;13.20;99.90;;;;;;5041718;28;20052;-39
2022/05/09 08:35:28;;;;;;;13.00;4.30;;;13.30;99.90;;;;;;5041943;28;20125;-38
2022/05/09 08:37:54;;;;;;;14.38;4.65;;;13.40;99.90;;;;;;5029078;28;20458;-38
2022/05/09 08:40:35;;;;;;;17.77;4.95;;;13.40;99.90;;;;;;5023799;28;20418;-38
2022/05/09 08:43:14;;;;;;;13.13;4.68;;;13.40;99.90;;;;;;5026928;28;20139;-37
2022/05/09 08:45:52;;;;;;;16.05;4.40;;;13.50;99.90;;;;;;5007047;28;20076;-43
2022/05/09 08:48:39;;;;;;;13.50;4.30;;;13.60;99.90;;;;;;5028440;28;20052;-45
2022/05/09 08:51:27;;;;;;;16.35;4.72;;;13.70;99.90;;;;;;5051374;28;20107;-39
2022/05/09 08:53:59;;;;;;;12.45;4.13;;;13.80;99.90;;;;;;5024839;28;20059;-39
2022/05/09 08:56:25;;;;;;;13.25;4.20;;;13.80;99.90;;;;;;5040908;28;20044;-40
2022/05/09 08:58:57;;;;;;;12.52;3.92;;;13.90;99.90;;;;;;5037578;28;20134;-37
2022/05/09 09:01:31;;;;;;;13.45;3.90;;;13.90;99.90;;;;;;5044834;28;20052;-41
2022/05/09 09:04:00;;;;;;;13.32;4.30;;;14.00;99.90;;;;;;5049326;28;20093;-37
2022/05/09 09:06:51;;;;;;;14.88;3.88;;;14.00;99.90;;;;;;5035373;28;20682;-44
2022/05/09 09:09:45;;;;;;;14.98;4.55;;;14.00;99.90;;;;;;5042602;28;20075;-37
2022/05/09 09:12:25;;;;;;;14.00;3.70;;;14.10;99.90;;;;;;5042541;28;20506;-38
2022/05/09 09:15:12;;;;;;;13.30;4.10;;;14.10;99.90;;;;;;5039285;28;20048;-39
2022/05/09 09:17:51;;;;;;;14.93;3.67;;;14.20;99.90;;;;;;5027189;28;20052;-44
2022/05/09 09:20:19;;;;;;;10.48;3.65;;;14.20;99.90;;;;;;5051870;28;20055;-37
2022/05/09 09:23:00;;;;;;;10.98;3.65;;;14.30;99.90;;;;;;5017684;28;20051;-38
2022/05/09 09:25:53;;;;;;;14.98;3.88;;;14.40;99.90;;;;;;5022597;28;20508;-40
2022/05/09 09:28:32;;;;;;;12.50;3.80;;;14.50;99.90;;;;;;5025221;28;20048;-42
2022/05/09 09:30:58;;;;;;;13.10;3.47;;;14.60;99.90;;;;;;5037739;28;20048;-39
2022/05/09 09:33:24;;;;;;;11.43;2.50;;;14.70;99.90;;;;;;5024912;28;20053;-38
2022/05/09 09:36:07;;;;;;;16.23;3.45;;;14.80;99.90;;;;;;5039483;28;20051;-37
2022/05/09 09:38:54;;;;;;;11.63;3.63;;;14.90;99.90;;;;;;5009989;28;21260;-39
2022/05/09 09:41:37;;;;;;;7.78;2.92;;;15.00;99.90;;;;;;5038667;28;20315;-43
2022/05/09 09:44:21;;;;;;;13.05;3.60;;;15.20;99.90;;;;;;5022012;28;20189;-39
2022/05/09 09:47:15;;;;;;;9.88;2.90;;;15.20;99.90;;;;;;5025126;28;20404;-40
2022/05/09 09:49:44;;;;;;;10.32;3.33;;;15.20;99.90;;;;;;5037185;28;20374;-42
2022/05/09 09:52:32;;;;;;;11.10;3.33;;;15.20;99.90;;;;;;5037941;28;20044;-43
2022/05/09 09:55:07;;;;;;;12.10;2.90;;;15.20;99.90;;;;;;5017468;28;20075;-38
2022/05/09 09:57:36;;;;;;;10.85;3.08;;;15.20;99.90;;;;;;5006520;28;20107;-39
2022/05/09 10:00:19;;;;;;;9.52;3.22;;;15.20;99.90;;;;;;5019054;28;20428;-39
2022/05/09 10:02:50;;;;;;;10.60;3.15;;;15.30;99.90;;;;;;5017996;28;20052;-41
2022/05/09 10:05:20;;;;;;;12.67;3.10;;;15.30;99.90;;;;;;5018958;28;20052;-38
2022/05/09 10:07:46;;;;;;;10.40;3.40;;;15.40;99.90;;;;;;5000551;28;20284;-40
2022/05/09 10:10:23;;;;;;;13.57;3.47;;;15.50;99.90;;;;;;5017373;28;20918;-39
2022/05/09 10:12:55;;;;;;;11.40;3.22;;;15.40;99.90;;;;;;5018670;28;20049;-38
2022/05/09 10:15:26;;;;;;;11.77;3.45;;;15.50;99.90;;;;;;5016952;28;20590;-39
2022/05/09 10:17:52;;;;;;;9.18;3.45;;;15.50;99.90;;;;;;5005119;28;20037;-38
2022/05/09 10:20:33;;;;;;;15.35;3.58;;;15.50;99.90;;;;;;5018533;28;20407;-38
2022/05/09 10:26:13;;;;;;;13.82;3.17;;;15.70;99.90;;;;;;5022510;28;20446;-40
2022/05/09 10:28:45;;;;;;;13.38;3.30;;;15.80;99.90;;;;;;5016780;28;20433;-42
2022/05/09 10:31:36;;;;;;;9.65;3.40;;;15.90;99.90;;;;;;5020337;28;20049;-40
2022/05/09 10:34:08;;;;;;;11.63;2.72;;;16.00;99.90;;;;;;5021681;28;20049;-39
2022/05/09 10:36:52;;;;;;;11.45;2.85;;;16.10;99.90;;;;;;5007866;28;20053;-38
2022/05/09 10:39:26;;;;;;;14.65;2.97;;;16.20;99.90;;;;;;5023508;28;20053;-42
2022/05/09 10:42:01;;;;;;;10.68;2.70;;;16.30;99.90;;;;;;5024058;28;20072;-40
2022/05/09 10:44:51;;;;;;;7.20;2.28;;;16.40;99.90;;;;;;5019747;28;20049;-40
2022/05/09 10:47:40;;;;;;;10.02;2.90;;;16.50;99.90;;;;;;5006461;28;20064;-39
2022/05/09 10:50:28;;;;;;;11.55;2.35;;;16.70;99.90;;;;;;5020313;28;20072;-40
2022/05/09 10:53:18;;;;;;;12.25;2.67;;;16.80;99.90;;;;;;5021917;28;20053;-40
2022/05/09 10:55:53;;;;;;;10.73;2.40;;;16.90;99.90;;;;;;5019538;28;20060;-38
2022/05/09 10:58:18;;;;;;;8.00;2.25;;;16.90;99.90;;;;;;5007283;28;20062;-46
2022/05/09 11:00:51;;;;;;;8.75;2.35;;;16.90;99.90;;;;;;5021192;28;20424;-45
2022/05/09 11:03:41;;;;;;;5.63;1.92;;;17.10;99.90;;;;;;5022608;28;20062;-43
2022/05/09 11:06:35;;;;;;;7.93;2.00;;;17.20;99.90;;;;;;5019208;28;20155;-39
2022/05/09 11:09:22;;;;;;;7.03;2.38;;;17.30;99.80;;;;;;5019980;28;20271;-44
2022/05/09 11:11:57;;;;;;;11.57;2.42;;;17.40;99.80;;;;;;5024330;28;20067;-39
2022/05/09 11:14:53;;;;;;;9.88;2.63;;;17.60;98.50;;;;;;5023970;28;20045;-39
2022/05/09 11:17:30;;;;;;;6.90;2.47;;;17.60;99.30;;;;;;5010028;28;20167;-47
2022/05/09 11:20:22;;;;;;;12.00;2.40;;;17.80;99.10;;;;;;5021906;28;20057;-44
2022/05/09 11:23:12;;;;;;;9.77;2.10;;;17.80;99.30;;;;;;5017147;28;20148;-41
2022/05/09 11:25:52;;;;;;;9.65;2.90;;;17.90;99.10;;;;;;5025888;28;20064;-39
2022/05/09 11:28:45;;;;;;;10.23;3.05;;;18.10;99.60;;;;;;5008011;28;20144;-40
2022/05/09 11:31:25;;;;;;;8.32;2.55;;;18.20;98.90;;;;;;5019397;28;20543;-40
2022/05/09 11:34:14;;;;;;;8.80;2.60;;;18.30;99.00;;;;;;5021031;28;20056;-43
2022/05/09 11:37:13;;;;;;;8.32;2.72;;;18.40;98.90;;;;;;5005076;28;20464;-42
2022/05/09 11:40:01;;;;;;;8.02;2.40;;;18.40;97.50;;;;;;5021668;28;20052;-40
2022/05/09 11:45:50;;;;;;;15.40;2.88;;;18.70;98.40;;;;;;5019864;28;20110;-46
2022/05/09 11:48:39;;;;;;;8.05;2.45;;;18.80;96.10;;;;;;5006483;28;20055;-39
2022/05/09 11:51:29;;;;;;;7.20;2.30;;;18.90;96.50;;;;;;5018915;28;20527;-44
2022/05/09 11:54:01;;;;;;;8.70;2.45;;;19.00;95.20;;;;;;5021159;28;20053;-42
2022/05/09 11:56:31;;;;;;;10.85;2.72;;;19.10;95.10;;;;;;5005662;28;20883;-43
2022/05/09 11:58:58;;;;;;;8.60;2.40;;;19.20;95.10;;;;;;5019185;28;20056;-39
2022/05/09 12:02:12;;;;;;;8.10;2.22;;;19.40;95.70;;;;;;5017594;28;20110;-41
2022/05/09 12:04:46;;;;;;;11.55;3.25;;;19.50;95.50;;;;;;5011244;28;20051;-40
2022/05/09 12:07:21;;;;;;;9.15;2.67;;;19.60;95.00;;;;;;5006043;28;20049;-38
2022/05/09 12:09:54;;;;;;;8.88;2.30;;;19.70;93.70;;;;;;5018382;28;20433;-39
2022/05/09 12:12:41;;;;;;;8.68;2.53;;;19.90;93.20;;;;;;4989584;28;20154;-40
2022/05/09 12:15:27;;;;;;;8.65;2.38;;;20.00;90.80;;;;;;5018888;28;20053;-43
2022/05/09 12:17:58;;;;;;;11.70;2.85;;;20.10;90.80;;;;;;4997853;28;20060;-46
2022/05/09 12:20:26;;;;;;;;;;;20.20;91.70;;;;;;5020285;28;20056;-40
2022/05/09 12:22:54;;;;;;;12.52;2.58;;;20.30;92.90;;;;;;5021884;28;19937;-39
2022/05/09 12:25:40;;;;;;;9.68;2.50;;;20.50;93.60;;;;;;5016546;28;20053;-43
2022/05/09 12:28:14;;;;;;;9.82;2.50;;;20.60;92.40;;;;;;5000726;28;20146;-42
2022/05/09 12:31:02;;;;;;;7.38;2.22;;;20.60;91.90;;;;;;5019501;28;20053;-38
2022/05/09 12:33:45;;;;;;;11.27;2.60;;;20.70;90.90;;;;;;5018587;28;20049;-39
2022/05/09 12:36:21;;;;;;;10.18;2.65;;;20.80;87.00;;;;;;5008856;28;20041;-41
2022/05/09 12:38:55;;;;;;;8.30;2.17;;;20.90;87.10;;;;;;5017697;28;20045;-42
2022/05/09 12:41:28;;;;;;;8.23;2.38;;;20.90;85.60;;;;;;5020392;28;20060;-39
2022/05/09 12:44:06;;;;;;;8.05;2.40;;;20.90;85.30;;;;;;5020172;28;20057;-39
2022/05/09 12:46:49;;;;;;;10.82;2.05;;;21.00;86.40;;;;;;5006458;28;20044;-45
2022/05/09 12:49:19;;;;;;;9.13;2.42;;;21.20;82.20;;;;;;5018573;28;20549;-43
2022/05/09 12:51:49;;;;;;;9.57;2.45;;;21.30;82.40;;;;;;5018555;28;20057;-40
2022/05/09 12:54:19;;;;;;;7.85;2.45;;;21.30;80.40;;;;;;5019229;28;20045;-43
2022/05/09 12:56:54;;;;;;;9.20;2.50;;;21.30;79.20;;;;;;5004798;28;20077;-40
2022/05/09 12:59:20;;;;;;;6.18;2.13;;;21.40;78.10;;;;;;5020361;28;20571;-44
2022/05/09 13:01:56;;;;;;;8.43;2.35;;;21.50;77.30;;;;;;5020234;28;20068;-42
2022/05/09 13:04:26;;;;;;;8.73;2.53;;;21.50;76.40;;;;;;5024096;28;20385;-39
2022/05/09 13:07:01;;;;;;;8.52;2.00;;;21.60;76.90;;;;;;5002613;28;20133;-41
2022/05/09 13:09:30;;;;;;;7.78;1.90;;;21.80;76.50;;;;;;5019573;28;20080;-40
2022/05/09 13:12:03;;;;;;;9.85;2.17;;;21.90;77.50;;;;;;5019438;28;20056;-40
2022/05/09 13:14:34;;;;;;;7.10;1.98;;;22.00;76.70;;;;;;5021992;28;20068;-40
2022/05/09 13:17:03;;;;;;;;;;;22.10;74.60;;;;;;5002710;28;20059;-46
2022/05/09 13:19:30;;;;;;;9.75;2.28;;;22.10;73.90;;;;;;5025708;28;19929;-45